KODO Airport (Odessa-Schlemeyer Field) Information

FAA: ODO - ICAO: KODO

KODO Airport Location

State Texas
County Ector
City Odessa
KODO Airport is 5 miles northeast of Odessa, TX.
Latitude 31-55-17.0946N
Longitude 102-23-13.6783W
Elevation 3,003ft

KODO Airport METARs

METAR KODO 200253Z AUTO 18010KT 10SM CLR 22/12 A3001 RMK AO2 SLP124 T02170122 53025
Altimeter 30.01"
Temperature 21.7°C (71.1°F)
Wind 180° at 10KT
Clouds Skies are clear.
Visibility 10.0mi
Time observed: 2021-10-20T02:53:00Z

KODO Airport Details

Status Operational
Activation November 1945
Ownership Public
Usage Public
Chart SAN ANTONIO
ATC on-site No
Beacon schedule sunset-sunrise
Beacon color clear green

KODO Airport Contacts

Owner ECTOR COUNTY
Owner address ECTOR CO COURTHOUSE ANNEX, 1010 EAST 8TH ST, ODESSA, TX 79761
Owner phone 432-498-4100
Manager BRAD STAFFORD
Manager address PO BOX 910, NAVASOTA, TX 77868
Manager phone 936-825-6450

KODO Airport (Odessa-Schlemeyer Field) Radio Frequencies

KODO (Airport) Radio Frequencies

UNICOM 123
Common traffic advisory frequency (CTAF) 123